createdAt,value
2018-09-30T00:01:23.311Z,4.90
2018-09-30T00:03:50.658Z,4.40
2018-09-30T00:06:17.963Z,4.80
2018-09-30T00:08:45.299Z,8.43
2018-09-30T00:11:12.601Z,4.77
2018-09-30T00:13:39.917Z,5.37
2018-09-30T00:16:07.229Z,4.07
2018-09-30T00:18:34.547Z,4.47
2018-09-30T00:21:01.893Z,4.80
2018-09-30T00:23:29.277Z,3.73
2018-09-30T00:25:56.582Z,4.80
2018-09-30T00:28:23.911Z,3.77
2018-09-30T00:30:51.207Z,8.90
2018-09-30T00:33:18.503Z,4.40
2018-09-30T00:35:45.811Z,4.87
2018-09-30T00:38:13.156Z,5.10
2018-09-30T00:40:40.481Z,6.20
2018-09-30T00:43:07.809Z,3.80
2018-09-30T00:45:35.112Z,3.93
2018-09-30T00:48:02.432Z,4.63
2018-09-30T00:50:29.723Z,4.80
2018-09-30T00:52:57.029Z,4.50
2018-09-30T00:55:24.348Z,4.27
2018-09-30T00:57:51.754Z,5.93
2018-09-30T01:00:19.053Z,3.30
2018-09-30T01:02:46.370Z,4.83
2018-09-30T01:05:13.668Z,3.93
2018-09-30T01:07:40.995Z,6.97
2018-09-30T01:10:08.305Z,4.93
2018-09-30T01:12:35.627Z,3.53
2018-09-30T01:15:02.955Z,4.30
2018-09-30T01:17:30.261Z,5.47
2018-09-30T01:19:57.567Z,3.07
2018-09-30T01:22:24.883Z,4.30
2018-09-30T01:24:52.271Z,5.90
2018-09-30T01:27:19.592Z,3.33
2018-09-30T01:29:46.894Z,3.23
2018-09-30T01:32:14.216Z,2.30
2018-09-30T01:34:41.526Z,5.13
2018-09-30T01:37:08.835Z,2.97
2018-09-30T01:39:36.135Z,5.80
2018-09-30T01:42:03.455Z,2.50
2018-09-30T01:44:30.787Z,4.20
2018-09-30T01:46:58.352Z,3.77
2018-09-30T01:49:25.698Z,3.40
2018-09-30T01:52:04.499Z,6.00
2018-09-30T01:54:31.819Z,8.77
2018-09-30T01:56:59.123Z,2.10
2018-09-30T01:59:26.455Z,3.90
2018-09-30T02:01:53.747Z,2.63
2018-09-30T02:04:21.111Z,2.57
2018-09-30T02:06:48.425Z,3.57
2018-09-30T02:09:15.736Z,3.33
2018-09-30T02:11:43.046Z,5.23
2018-09-30T02:14:10.366Z,4.40
2018-09-30T02:16:37.655Z,3.57
2018-09-30T02:19:05.268Z,2.83
2018-09-30T02:21:32.578Z,4.03
2018-09-30T02:23:59.895Z,4.00
2018-09-30T02:26:27.206Z,4.67
2018-09-30T02:28:54.526Z,2.97
2018-09-30T02:31:21.843Z,4.00
2018-09-30T02:33:49.169Z,3.10
2018-09-30T02:36:16.478Z,3.20
2018-09-30T02:38:43.806Z,3.73
2018-09-30T02:41:11.132Z,2.87
2018-09-30T02:43:38.443Z,2.70
2018-09-30T02:46:05.772Z,2.10
2018-09-30T02:48:33.097Z,2.13
2018-09-30T02:51:00.424Z,2.93
2018-09-30T02:53:27.744Z,3.80
2018-09-30T02:55:55.044Z,2.67
2018-09-30T02:58:22.383Z,2.67
2018-09-30T03:00:49.692Z,3.20
2018-09-30T03:03:17.014Z,4.17
2018-09-30T03:05:44.316Z,4.73
2018-09-30T03:08:11.643Z,2.80
2018-09-30T03:10:38.994Z,3.20
2018-09-30T03:13:06.295Z,3.27
2018-09-30T03:15:33.632Z,3.07
2018-09-30T03:18:00.995Z,4.30
2018-09-30T03:20:28.356Z,2.30
2018-09-30T03:22:55.655Z,5.13
2018-09-30T03:25:22.981Z,3.20
2018-09-30T03:27:50.306Z,3.00
2018-09-30T03:30:17.621Z,4.47
2018-09-30T03:32:44.931Z,4.07
2018-09-30T03:35:12.285Z,3.53
2018-09-30T03:37:39.591Z,6.50
2018-09-30T03:40:06.892Z,2.47
2018-09-30T03:42:34.209Z,4.90
2018-09-30T03:45:01.512Z,2.50
2018-09-30T03:47:28.830Z,4.63
2018-09-30T03:49:56.171Z,3.20
2018-09-30T03:52:23.483Z,3.93
2018-09-30T03:54:50.815Z,2.40
2018-09-30T03:57:18.144Z,2.43
2018-09-30T03:59:45.476Z,3.13
2018-09-30T04:02:12.784Z,2.67
2018-09-30T04:04:40.124Z,3.53
2018-09-30T04:07:07.460Z,2.50
2018-09-30T04:09:34.826Z,3.37
2018-09-30T04:12:02.100Z,3.67
2018-09-30T04:14:29.420Z,4.10
2018-09-30T04:16:56.796Z,3.00
2018-09-30T04:19:24.071Z,2.80
2018-09-30T04:21:51.386Z,7.13
2018-09-30T04:24:18.693Z,3.73
2018-09-30T04:26:46.021Z,4.80
2018-09-30T04:29:13.320Z,2.70
2018-09-30T04:31:40.643Z,3.60
2018-09-30T04:34:07.949Z,3.37
2018-09-30T04:36:35.265Z,2.90
2018-09-30T04:39:02.719Z,3.47
2018-09-30T04:41:30.038Z,5.60
2018-09-30T04:43:57.371Z,3.07
2018-09-30T04:46:24.692Z,2.20
2018-09-30T04:48:52.019Z,2.83
2018-09-30T04:51:19.360Z,2.90
2018-09-30T04:53:46.724Z,2.00
2018-09-30T04:56:14.024Z,2.40
2018-09-30T04:58:41.340Z,2.60
2018-09-30T05:01:08.724Z,3.90
2018-09-30T05:03:36.052Z,2.90
2018-09-30T05:06:03.368Z,3.57
2018-09-30T05:08:30.688Z,3.07
2018-09-30T05:10:58.016Z,5.93
2018-09-30T05:13:25.343Z,1.80
2018-09-30T05:15:52.845Z,2.40
2018-09-30T05:18:20.172Z,3.40
2018-09-30T05:20:47.482Z,2.83
2018-09-30T05:23:14.804Z,2.53
2018-09-30T05:25:42.217Z,2.37
2018-09-30T05:28:09.460Z,2.20
2018-09-30T05:30:36.907Z,3.60
2018-09-30T05:33:04.272Z,2.00
2018-09-30T05:35:31.607Z,4.10
2018-09-30T05:37:58.911Z,4.97
2018-09-30T05:40:26.240Z,2.30
2018-09-30T05:42:53.599Z,4.03
2018-09-30T05:45:20.904Z,3.30
2018-09-30T05:47:48.222Z,4.23
2018-09-30T05:50:15.541Z,3.03
2018-09-30T05:52:42.852Z,6.03
2018-09-30T05:55:10.173Z,2.37
2018-09-30T05:57:37.531Z,2.00
2018-09-30T06:00:04.890Z,6.53
2018-09-30T06:02:32.250Z,4.57
2018-09-30T06:04:59.516Z,2.33
2018-09-30T06:07:26.833Z,1.93
2018-09-30T06:09:54.131Z,3.73
2018-09-30T06:12:21.451Z,2.27
2018-09-30T06:14:48.782Z,3.07
2018-09-30T06:17:16.118Z,2.50
2018-09-30T06:19:43.768Z,2.10
2018-09-30T06:22:11.097Z,2.77
2018-09-30T06:24:38.406Z,4.17
2018-09-30T06:27:05.999Z,3.27
2018-09-30T06:29:33.317Z,2.63
2018-09-30T06:32:00.696Z,3.80
2018-09-30T06:34:27.957Z,2.87
2018-09-30T06:36:55.300Z,2.23
2018-09-30T06:39:22.649Z,1.90
2018-09-30T06:41:49.991Z,3.50
2018-09-30T06:44:17.337Z,5.43
2018-09-30T06:46:44.636Z,3.10
2018-09-30T06:49:11.977Z,4.63
2018-09-30T06:51:39.313Z,2.37
2018-09-30T06:54:06.649Z,2.60
2018-09-30T06:56:34.056Z,6.03
2018-09-30T06:59:01.394Z,3.47
2018-09-30T07:01:28.713Z,2.70
2018-09-30T07:03:56.050Z,3.27
2018-09-30T07:06:23.395Z,4.50
2018-09-30T07:08:50.727Z,4.70
2018-09-30T07:11:18.053Z,2.70
2018-09-30T07:13:45.423Z,3.87
2018-09-30T07:16:12.744Z,2.97
2018-09-30T07:18:40.114Z,3.60
2018-09-30T07:21:07.441Z,7.10
2018-09-30T07:23:34.770Z,5.33
2018-09-30T07:26:02.084Z,5.10
2018-09-30T07:28:29.488Z,4.10
2018-09-30T07:30:56.816Z,4.97
2018-09-30T07:33:24.164Z,4.60
2018-09-30T07:35:51.466Z,4.53
2018-09-30T07:38:18.892Z,3.83
2018-09-30T07:40:46.205Z,3.83
2018-09-30T07:43:13.533Z,4.53
2018-09-30T07:45:40.848Z,3.70
2018-09-30T07:48:08.175Z,5.30
2018-09-30T07:50:35.563Z,4.13
2018-09-30T07:53:02.904Z,4.37
2018-09-30T07:55:30.220Z,3.10
2018-09-30T07:57:57.553Z,4.87
2018-09-30T08:00:24.912Z,3.53
2018-09-30T08:02:52.267Z,2.37
2018-09-30T08:05:19.569Z,4.40
2018-09-30T08:07:46.892Z,3.63
2018-09-30T08:10:14.195Z,5.00
2018-09-30T08:12:41.576Z,3.60
2018-09-30T08:15:08.980Z,2.77
2018-09-30T08:17:36.305Z,4.63
2018-09-30T08:20:03.624Z,3.20
2018-09-30T08:22:30.956Z,3.60
2018-09-30T08:24:58.265Z,3.97
2018-09-30T08:27:25.599Z,3.60
2018-09-30T08:29:52.956Z,4.60
2018-09-30T08:32:20.320Z,4.20
2018-09-30T08:34:47.656Z,4.23
2018-09-30T08:37:15.000Z,3.60
2018-09-30T08:39:42.413Z,21.07
2018-09-30T08:42:09.661Z,5.00
2018-09-30T08:44:36.985Z,4.37
2018-09-30T08:47:04.336Z,3.43
2018-09-30T08:49:31.797Z,4.60
2018-09-30T08:51:59.115Z,3.83
2018-09-30T08:54:26.416Z,3.37
2018-09-30T08:56:53.755Z,4.67
2018-09-30T08:59:21.110Z,2.90
2018-09-30T09:01:48.905Z,3.83
2018-09-30T09:04:16.238Z,5.47
2018-09-30T09:06:43.569Z,3.60
2018-09-30T09:09:10.899Z,3.70
2018-09-30T09:11:38.208Z,4.27
2018-09-30T09:14:05.832Z,2.90
2018-09-30T09:16:35.282Z,3.77
2018-09-30T09:19:03.047Z,3.50
2018-09-30T09:21:30.391Z,3.57
2018-09-30T09:23:57.716Z,2.40
2018-09-30T09:26:25.040Z,4.60
2018-09-30T09:28:52.363Z,4.93
2018-09-30T09:31:19.736Z,4.03
2018-09-30T09:33:47.076Z,3.50
2018-09-30T09:36:14.391Z,7.93
2018-09-30T09:38:41.720Z,4.73
2018-09-30T09:41:09.043Z,4.77
2018-09-30T09:43:36.360Z,3.90
2018-09-30T09:46:03.833Z,3.37
2018-09-30T09:48:31.151Z,3.80
2018-09-30T09:50:58.552Z,2.97
2018-09-30T09:53:25.877Z,5.67
2018-09-30T09:55:54.249Z,5.30
2018-09-30T09:58:21.563Z,5.20
2018-09-30T10:00:48.913Z,2.90
2018-09-30T10:03:16.232Z,3.70
2018-09-30T10:05:43.581Z,4.20
2018-09-30T10:08:10.982Z,4.90
2018-09-30T10:10:38.252Z,3.20
2018-09-30T10:13:05.616Z,4.53
2018-09-30T10:15:32.897Z,4.97
2018-09-30T10:18:00.243Z,4.90
2018-09-30T10:20:27.544Z,5.40
2018-09-30T10:22:54.924Z,4.27
2018-09-30T10:25:22.230Z,3.33
2018-09-30T10:27:49.562Z,6.37
2018-09-30T10:30:16.887Z,5.40
2018-09-30T10:32:44.205Z,3.60
2018-09-30T10:35:11.527Z,6.37
2018-09-30T10:37:38.831Z,3.30
2018-09-30T10:40:06.169Z,4.03
2018-09-30T10:42:33.480Z,4.20
2018-09-30T10:45:00.820Z,5.53
2018-09-30T10:47:28.152Z,4.60
2018-09-30T10:49:55.455Z,4.80
2018-09-30T10:52:22.756Z,3.90
2018-09-30T10:54:50.089Z,3.83
2018-09-30T10:57:17.446Z,6.20
2018-09-30T10:59:44.748Z,4.33
2018-09-30T11:02:12.072Z,6.70
2018-09-30T11:04:39.376Z,5.83
2018-09-30T11:07:06.727Z,5.10
2018-09-30T11:09:34.060Z,4.63
2018-09-30T11:12:01.404Z,4.33
2018-09-30T11:14:28.745Z,6.93
2018-09-30T11:16:56.116Z,4.90
2018-09-30T11:19:23.495Z,4.50
2018-09-30T11:21:50.859Z,4.13
2018-09-30T11:24:18.172Z,6.00
2018-09-30T11:26:45.496Z,5.57
2018-09-30T11:29:12.813Z,7.87
2018-09-30T11:31:40.155Z,5.30
2018-09-30T11:34:07.447Z,7.23
2018-09-30T11:36:34.776Z,4.77
2018-09-30T11:39:02.112Z,5.10
2018-09-30T11:41:29.425Z,4.87
2018-09-30T11:43:56.747Z,6.13
2018-09-30T11:46:24.128Z,4.87
2018-09-30T11:48:51.448Z,5.87
2018-09-30T11:51:18.771Z,4.50
2018-09-30T11:53:46.070Z,5.13
2018-09-30T11:56:13.394Z,8.60
2018-09-30T11:58:40.713Z,7.23
2018-09-30T12:01:08.058Z,5.77
2018-09-30T12:03:35.345Z,6.90
2018-09-30T12:06:02.697Z,5.83
2018-09-30T12:08:30.013Z,6.83
2018-09-30T12:10:57.328Z,5.43
2018-09-30T12:13:24.664Z,9.10
2018-09-30T12:15:52.011Z,5.63
2018-09-30T12:18:19.346Z,5.07
2018-09-30T12:20:47.750Z,4.70
2018-09-30T12:23:15.062Z,4.87
2018-09-30T12:25:42.435Z,7.73
2018-09-30T12:28:09.732Z,5.10
2018-09-30T12:30:37.067Z,4.40
2018-09-30T12:33:04.412Z,4.73
2018-09-30T12:35:31.753Z,4.97
2018-09-30T12:37:59.075Z,5.50
2018-09-30T12:40:26.392Z,5.73
2018-09-30T12:42:53.731Z,5.03
2018-09-30T12:45:21.044Z,5.07
2018-09-30T12:47:48.519Z,5.47
2018-09-30T12:50:15.864Z,5.03
2018-09-30T12:52:43.179Z,5.57
2018-09-30T12:55:10.503Z,4.17
2018-09-30T12:57:37.822Z,7.00
2018-09-30T13:00:05.252Z,5.07
2018-09-30T13:02:32.567Z,6.80
2018-09-30T13:04:59.885Z,5.70
2018-09-30T13:07:27.212Z,6.73
2018-09-30T13:09:54.524Z,5.50
2018-09-30T13:12:21.860Z,4.97
2018-09-30T13:14:49.166Z,4.13
2018-09-30T13:17:16.478Z,6.80
2018-09-30T13:19:43.808Z,7.60
2018-09-30T13:22:11.127Z,6.13
2018-09-30T13:24:38.465Z,5.83
2018-09-30T13:27:05.779Z,5.97
2018-09-30T13:29:33.096Z,6.93
2018-09-30T13:32:00.425Z,4.90
2018-09-30T13:34:27.775Z,7.17
2018-09-30T13:36:55.106Z,4.73
2018-09-30T13:39:22.412Z,5.83
2018-09-30T13:41:49.744Z,4.40
2018-09-30T13:44:17.092Z,4.40
2018-09-30T13:46:44.412Z,4.70
2018-09-30T13:49:11.720Z,5.30
2018-09-30T13:51:39.050Z,5.63
2018-09-30T13:54:06.368Z,5.03
2018-09-30T13:56:33.692Z,5.60
2018-09-30T13:59:00.999Z,4.83
2018-09-30T14:01:28.328Z,4.03
2018-09-30T14:03:55.661Z,3.83
2018-09-30T14:06:22.988Z,3.80
2018-09-30T14:08:50.297Z,3.97
2018-09-30T14:11:17.640Z,5.27
2018-09-30T14:13:44.977Z,4.00
2018-09-30T14:16:12.312Z,4.37
2018-09-30T14:18:39.644Z,3.63
2018-09-30T14:21:06.979Z,5.30
2018-09-30T14:23:34.409Z,4.23
2018-09-30T14:26:01.752Z,5.87
2018-09-30T14:28:29.061Z,5.20
2018-09-30T14:30:56.388Z,4.50
2018-09-30T14:33:23.713Z,6.23
2018-09-30T14:35:51.074Z,7.03
2018-09-30T14:38:18.408Z,3.80
2018-09-30T14:40:45.765Z,4.00
2018-09-30T14:43:13.080Z,4.07
2018-09-30T14:45:40.423Z,5.30
2018-09-30T14:48:07.834Z,4.07
2018-09-30T14:50:35.088Z,3.30
2018-09-30T14:53:02.468Z,3.13
2018-09-30T14:55:29.796Z,6.30
2018-09-30T14:57:57.124Z,8.87
2018-09-30T15:00:24.424Z,18.60
2018-09-30T15:02:51.756Z,13.93
2018-09-30T15:05:19.134Z,16.77
2018-09-30T15:07:46.471Z,19.30
2018-09-30T15:10:13.769Z,7.57
2018-09-30T15:12:41.084Z,4.33
2018-09-30T15:15:08.507Z,7.50
2018-09-30T15:17:35.878Z,5.43
2018-09-30T15:20:03.360Z,3.80
2018-09-30T15:22:30.836Z,5.10
2018-09-30T15:24:58.165Z,4.60
2018-09-30T15:27:25.499Z,4.00
2018-09-30T15:29:52.820Z,4.93
2018-09-30T15:32:20.132Z,3.50
2018-09-30T15:34:47.481Z,5.53
2018-09-30T15:37:14.816Z,3.93
2018-09-30T15:39:42.228Z,5.10
2018-09-30T15:42:09.560Z,6.00
2018-09-30T15:44:36.889Z,3.20
2018-09-30T15:47:04.287Z,3.63
2018-09-30T15:49:31.616Z,5.33
2018-09-30T15:51:59.103Z,3.30
2018-09-30T15:54:26.746Z,3.67
2018-09-30T15:56:54.053Z,4.30
2018-09-30T15:59:21.401Z,6.60
2018-09-30T16:01:48.765Z,4.93
2018-09-30T16:04:16.100Z,7.73
2018-09-30T16:06:43.532Z,4.53
2018-09-30T16:09:10.919Z,7.47
2018-09-30T16:11:38.356Z,3.57
2018-09-30T16:14:06.284Z,7.37
2018-09-30T16:16:35.265Z,2.97
2018-09-30T16:19:03.991Z,2.57
2018-09-30T16:21:31.324Z,2.83
2018-09-30T16:23:59.044Z,3.20
2018-09-30T16:26:28.303Z,4.20
2018-09-30T16:28:57.501Z,5.00
2018-09-30T16:31:25.721Z,3.37
2018-09-30T16:33:55.596Z,5.07
2018-09-30T16:36:22.912Z,4.60
2018-09-30T16:38:50.287Z,4.47
2018-09-30T16:41:17.750Z,3.63
2018-09-30T16:43:51.144Z,4.87
2018-09-30T16:46:20.259Z,4.20
2018-09-30T16:48:49.355Z,3.73
2018-09-30T16:51:20.131Z,3.90
2018-09-30T16:53:47.506Z,4.90
2018-09-30T16:56:17.373Z,4.77
2018-09-30T16:58:48.984Z,4.37
2018-09-30T17:01:16.302Z,10.40
2018-09-30T17:03:43.759Z,20.07
2018-09-30T17:06:11.092Z,17.03
2018-09-30T17:08:39.026Z,37.80
2018-09-30T17:11:06.479Z,38.57
2018-09-30T17:13:33.809Z,12.60
2018-09-30T17:16:01.190Z,6.83
2018-09-30T17:18:28.445Z,5.23
2018-09-30T17:20:55.775Z,5.30
2018-09-30T17:23:23.113Z,5.20
2018-09-30T17:25:50.477Z,7.00
2018-09-30T17:28:17.812Z,5.30
2018-09-30T17:30:45.182Z,4.73
2018-09-30T17:33:12.519Z,4.00
2018-09-30T17:35:39.844Z,4.03
2018-09-30T17:38:07.174Z,5.77
2018-09-30T17:40:34.483Z,4.60
2018-09-30T17:43:01.889Z,4.30
2018-09-30T17:45:29.218Z,3.50
2018-09-30T17:47:56.571Z,4.30
2018-09-30T17:50:23.891Z,4.37
2018-09-30T17:52:51.220Z,5.67
2018-09-30T17:55:18.529Z,6.37
2018-09-30T17:57:45.847Z,6.80
2018-09-30T18:00:13.179Z,5.47
2018-09-30T18:02:40.514Z,6.50
2018-09-30T18:05:07.843Z,4.20
2018-09-30T18:07:35.144Z,6.60
2018-09-30T18:10:02.484Z,4.07
2018-09-30T18:12:29.806Z,3.80
2018-09-30T18:14:57.113Z,5.03
2018-09-30T18:17:24.436Z,3.23
2018-09-30T18:19:51.754Z,5.03
2018-09-30T18:22:19.086Z,4.07
2018-09-30T18:24:46.459Z,4.73
2018-09-30T18:27:13.776Z,3.77
2018-09-30T18:29:41.080Z,5.57
2018-09-30T18:32:09.008Z,4.47
2018-09-30T18:34:36.333Z,3.40
2018-09-30T18:37:03.724Z,3.20
2018-09-30T18:39:31.072Z,3.67
2018-09-30T18:41:58.415Z,5.50
2018-09-30T18:44:25.693Z,5.57
2018-09-30T18:46:53.036Z,3.43
2018-09-30T18:49:20.563Z,3.97
2018-09-30T18:51:47.877Z,3.37
2018-09-30T18:54:15.211Z,4.63
2018-09-30T18:56:42.532Z,5.00
2018-09-30T18:59:09.872Z,4.30
2018-09-30T19:01:37.197Z,4.47
2018-09-30T19:04:04.559Z,2.83
2018-09-30T19:06:31.948Z,4.60
2018-09-30T19:08:59.248Z,4.17
2018-09-30T19:11:26.557Z,2.90
2018-09-30T19:13:53.887Z,5.97
2018-09-30T19:16:21.358Z,3.30
2018-09-30T19:18:48.531Z,4.17
2018-09-30T19:21:15.867Z,3.73
2018-09-30T19:23:43.204Z,6.07
2018-09-30T19:26:10.524Z,4.10
2018-09-30T19:28:37.846Z,3.97
2018-09-30T19:31:05.199Z,4.50
2018-09-30T19:33:32.512Z,5.33
2018-09-30T19:35:59.841Z,5.47
2018-09-30T19:38:27.177Z,5.63
2018-09-30T19:40:54.493Z,4.67
2018-09-30T19:43:21.808Z,6.30
2018-09-30T19:45:49.144Z,4.70
2018-09-30T19:48:16.498Z,6.20
2018-09-30T19:50:43.821Z,4.03
2018-09-30T19:53:11.172Z,4.67
2018-09-30T19:55:38.485Z,6.00
2018-09-30T19:58:05.820Z,5.87
2018-09-30T20:00:33.225Z,5.43
2018-09-30T20:03:00.568Z,4.43
2018-09-30T20:05:27.883Z,7.53
2018-09-30T20:07:55.216Z,3.90
2018-09-30T20:10:22.732Z,4.10
2018-09-30T20:12:49.963Z,6.17
2018-09-30T20:15:17.273Z,4.87
2018-09-30T20:17:44.600Z,9.63
2018-09-30T20:20:11.977Z,4.03
2018-09-30T20:22:39.312Z,5.73
2018-09-30T20:25:06.638Z,5.50
2018-09-30T20:27:33.992Z,5.50
2018-09-30T20:30:01.313Z,5.87
2018-09-30T20:32:28.632Z,4.77
2018-09-30T20:34:55.956Z,6.00
2018-09-30T20:37:23.275Z,5.40
2018-09-30T20:39:50.721Z,4.70
2018-09-30T20:42:18.062Z,4.63
2018-09-30T20:44:45.466Z,4.40
2018-09-30T20:47:12.774Z,5.07
2018-09-30T20:49:40.143Z,3.90
2018-09-30T20:52:07.454Z,5.50
2018-09-30T20:54:34.793Z,5.87
2018-09-30T20:57:02.199Z,5.03
2018-09-30T20:59:29.532Z,4.93
2018-09-30T21:01:56.857Z,3.63
2018-09-30T21:04:24.331Z,5.33
2018-09-30T21:06:51.657Z,4.50
2018-09-30T21:09:19.037Z,5.57
2018-09-30T21:11:46.327Z,5.10
2018-09-30T21:14:13.644Z,3.67
2018-09-30T21:16:41.005Z,3.53
2018-09-30T21:19:08.568Z,5.20
2018-09-30T21:21:35.904Z,6.63
2018-09-30T21:24:03.208Z,6.40
2018-09-30T21:26:30.549Z,4.60
2018-09-30T21:28:57.866Z,5.83
2018-09-30T21:31:25.224Z,5.00
2018-09-30T21:33:52.544Z,6.20
2018-09-30T21:36:19.880Z,4.47
2018-09-30T21:38:47.217Z,4.10
2018-09-30T21:41:14.539Z,8.77
2018-09-30T21:43:41.916Z,3.87
2018-09-30T21:46:09.224Z,7.03
2018-09-30T21:48:36.581Z,6.17
2018-09-30T21:51:03.926Z,3.77
2018-09-30T21:53:31.261Z,5.30
2018-09-30T21:55:58.576Z,4.13
2018-09-30T21:58:25.904Z,5.93
2018-09-30T22:00:53.470Z,4.80
2018-09-30T22:03:20.798Z,5.47
2018-09-30T22:05:48.157Z,5.90
2018-09-30T22:08:15.528Z,3.67
2018-09-30T22:10:42.877Z,7.67
2018-09-30T22:13:10.207Z,5.43
2018-09-30T22:15:37.543Z,3.93
2018-09-30T22:18:04.872Z,6.40
2018-09-30T22:20:32.224Z,6.57
2018-09-30T22:22:59.556Z,6.90
2018-09-30T22:25:26.886Z,7.87
2018-09-30T22:27:54.201Z,7.47
2018-09-30T22:30:21.542Z,6.10
2018-09-30T22:32:48.869Z,4.40
2018-09-30T22:35:16.216Z,2.83
2018-09-30T22:37:43.542Z,5.07
2018-09-30T22:40:10.918Z,5.07
2018-09-30T22:42:38.200Z,9.40
2018-09-30T22:45:05.553Z,6.80
2018-09-30T22:47:32.937Z,4.93
2018-09-30T22:50:01.153Z,7.07
2018-09-30T22:52:28.480Z,4.27
2018-09-30T22:54:55.808Z,4.73
2018-09-30T22:57:23.164Z,6.63
2018-09-30T22:59:50.491Z,7.10
2018-09-30T23:02:17.884Z,6.10
2018-09-30T23:04:45.294Z,4.77
2018-09-30T23:07:12.541Z,3.87
2018-09-30T23:09:39.858Z,4.60
2018-09-30T23:12:07.226Z,3.30
2018-09-30T23:14:34.556Z,4.90
2018-09-30T23:17:01.869Z,3.53
2018-09-30T23:19:29.187Z,3.50
2018-09-30T23:21:56.506Z,3.60
2018-09-30T23:24:23.824Z,3.60
2018-09-30T23:26:51.156Z,9.53
2018-09-30T23:29:18.463Z,4.97
2018-09-30T23:31:45.816Z,4.57
2018-09-30T23:34:13.205Z,6.03
2018-09-30T23:36:40.528Z,5.00
2018-09-30T23:39:08.579Z,4.23
2018-09-30T23:41:35.921Z,3.93
2018-09-30T23:44:03.244Z,6.43
2018-09-30T23:46:30.548Z,6.90
2018-09-30T23:48:57.872Z,4.93
2018-09-30T23:51:25.202Z,4.83
2018-09-30T23:53:52.536Z,6.50
2018-09-30T23:56:20.285Z,4.10
2018-09-30T23:58:47.579Z,8.67
